createdAt,value
2019-05-12T00:00:12.993Z,0.00
2019-05-12T00:01:13.011Z,0.00
2019-05-12T00:02:12.987Z,0.00
2019-05-12T00:03:12.984Z,0.00
2019-05-12T00:04:12.952Z,0.00
2019-05-12T00:05:12.941Z,0.00
2019-05-12T00:06:12.951Z,0.00
2019-05-12T00:07:12.923Z,0.00
2019-05-12T00:08:12.923Z,0.00
2019-05-12T00:09:12.904Z,0.00
2019-05-12T00:10:12.896Z,0.00
2019-05-12T00:11:12.881Z,0.00
2019-05-12T00:12:12.878Z,0.00
2019-05-12T00:13:12.854Z,0.00
2019-05-12T00:14:12.856Z,0.00
2019-05-12T00:15:12.834Z,0.00
2019-05-12T00:16:12.829Z,0.00
2019-05-12T00:17:12.844Z,0.00
2019-05-12T00:18:12.804Z,0.00
2019-05-12T00:19:12.791Z,0.00
2019-05-12T00:20:12.786Z,0.00
2019-05-12T00:21:12.775Z,0.00
2019-05-12T00:22:12.778Z,0.00
2019-05-12T00:23:23.988Z,0.00
2019-05-12T00:24:13.739Z,0.00
2019-05-12T00:25:12.727Z,0.00
2019-05-12T00:26:12.725Z,0.00
2019-05-12T00:27:12.721Z,0.00
2019-05-12T00:28:12.701Z,0.00
2019-05-12T00:29:12.689Z,0.00
2019-05-12T00:30:12.682Z,0.00
2019-05-12T00:31:12.689Z,0.00
2019-05-12T00:32:12.667Z,0.00
2019-05-12T00:33:12.642Z,0.00
2019-05-12T00:34:12.644Z,0.00
2019-05-12T00:35:12.644Z,0.00
2019-05-12T00:36:12.605Z,0.00
2019-05-12T00:37:12.610Z,0.00
2019-05-12T00:38:12.590Z,0.00
2019-05-12T00:39:12.579Z,0.00
2019-05-12T00:40:12.568Z,0.00
2019-05-12T00:41:12.569Z,0.00
2019-05-12T00:42:12.572Z,0.00
2019-05-12T00:43:12.552Z,0.00
2019-05-12T00:44:12.522Z,0.00
2019-05-12T00:45:12.511Z,0.00
2019-05-12T00:46:12.499Z,0.00
2019-05-12T00:47:12.489Z,0.00
2019-05-12T00:48:12.513Z,0.00
2019-05-12T00:49:12.482Z,0.00
2019-05-12T00:50:12.456Z,0.00
2019-05-12T00:51:12.451Z,0.00
2019-05-12T00:52:12.443Z,0.00
2019-05-12T00:53:12.433Z,0.00
2019-05-12T00:54:12.434Z,0.00
2019-05-12T00:55:12.417Z,0.00
2019-05-12T00:56:12.393Z,0.00
2019-05-12T00:57:12.383Z,0.00
2019-05-12T00:58:12.372Z,0.00
2019-05-12T00:59:12.384Z,0.00
2019-05-12T01:00:12.356Z,0.00
2019-05-12T01:01:12.361Z,0.00
2019-05-12T01:02:12.335Z,0.00
2019-05-12T01:03:12.326Z,0.00
2019-05-12T01:04:12.309Z,0.00
2019-05-12T01:05:12.321Z,0.00
2019-05-12T01:06:12.302Z,0.00
2019-05-12T01:07:12.315Z,0.00
2019-05-12T01:08:12.268Z,0.00
2019-05-12T01:09:12.253Z,0.00
2019-05-12T01:10:12.260Z,0.00
2019-05-12T01:11:12.234Z,0.00
2019-05-12T01:12:12.249Z,0.00
2019-05-12T01:13:12.216Z,0.00
2019-05-12T01:14:12.207Z,0.00
2019-05-12T01:15:12.219Z,0.00
2019-05-12T01:16:12.179Z,0.00
2019-05-12T01:17:12.179Z,0.00
2019-05-12T01:18:12.164Z,0.00
2019-05-12T01:19:12.145Z,0.00
2019-05-12T01:20:12.142Z,0.00
2019-05-12T01:21:12.146Z,0.00
2019-05-12T01:22:12.117Z,0.00
2019-05-12T01:23:12.113Z,0.00
2019-05-12T01:24:12.110Z,0.00
2019-05-12T01:25:12.095Z,0.00
2019-05-12T01:26:12.117Z,0.00
2019-05-12T01:27:12.066Z,0.00
2019-05-12T01:28:12.048Z,0.00
2019-05-12T01:29:12.049Z,0.00
2019-05-12T01:30:12.029Z,0.00
2019-05-12T01:31:12.018Z,0.00
2019-05-12T01:32:12.029Z,0.00
2019-05-12T01:33:12.006Z,0.00
2019-05-12T01:34:11.990Z,0.00
2019-05-12T01:35:11.986Z,0.00
2019-05-12T01:36:11.966Z,0.00
2019-05-12T01:37:11.965Z,0.00
2019-05-12T01:38:11.953Z,0.00
2019-05-12T01:39:11.954Z,0.00
2019-05-12T01:40:11.932Z,0.00
2019-05-12T01:41:11.911Z,0.00
2019-05-12T01:42:11.928Z,0.00
2019-05-12T01:43:11.889Z,0.00
2019-05-12T01:44:11.888Z,0.00
2019-05-12T01:45:11.879Z,0.00
2019-05-12T01:46:11.878Z,0.00
2019-05-12T01:47:11.852Z,0.00
2019-05-12T01:48:11.851Z,0.00
2019-05-12T01:49:11.827Z,0.00
2019-05-12T01:50:11.816Z,0.00
2019-05-12T01:51:11.804Z,0.00
2019-05-12T01:52:11.798Z,0.00
2019-05-12T01:53:11.803Z,0.00
2019-05-12T01:54:14.882Z,0.00
2019-05-12T01:55:11.759Z,0.00
2019-05-12T01:56:11.761Z,0.00
2019-05-12T01:57:11.750Z,0.00
2019-05-12T01:58:11.758Z,0.00
2019-05-12T01:59:11.728Z,0.00
2019-05-12T02:00:11.710Z,0.00
2019-05-12T02:01:11.696Z,0.00
2019-05-12T02:02:11.708Z,0.00
2019-05-12T02:03:11.694Z,0.00
2019-05-12T02:04:11.704Z,0.00
2019-05-12T02:05:11.660Z,0.00
2019-05-12T02:06:11.655Z,0.00
2019-05-12T02:07:11.637Z,0.00
2019-05-12T02:08:11.635Z,0.00
2019-05-12T02:09:11.611Z,0.00
2019-05-12T02:10:11.614Z,0.00
2019-05-12T02:11:11.598Z,0.00
2019-05-12T02:12:11.585Z,0.00
2019-05-12T02:13:11.583Z,0.00
2019-05-12T02:14:11.556Z,0.00
2019-05-12T02:15:11.561Z,0.00
2019-05-12T02:16:11.541Z,0.00
2019-05-12T02:17:11.535Z,0.00
2019-05-12T02:18:11.531Z,0.00
2019-05-12T02:19:11.507Z,0.00
2019-05-12T02:20:11.502Z,0.00
2019-05-12T02:21:11.483Z,0.00
2019-05-12T02:22:11.475Z,0.00
2019-05-12T02:23:11.470Z,0.00
2019-05-12T02:24:23.295Z,0.00
2019-05-12T02:25:12.444Z,0.00
2019-05-12T02:26:11.431Z,0.00
2019-05-12T02:27:11.420Z,0.00
2019-05-12T02:28:11.426Z,0.00
2019-05-12T02:29:11.407Z,0.00
2019-05-12T02:30:11.393Z,0.00
2019-05-12T02:31:11.387Z,0.00
2019-05-12T02:32:11.373Z,0.00
2019-05-12T02:33:11.366Z,0.00
2019-05-12T02:34:15.335Z,0.00
2019-05-12T02:35:11.344Z,0.00
2019-05-12T02:36:14.865Z,0.00
2019-05-12T02:37:11.312Z,0.00
2019-05-12T02:38:14.288Z,0.00
2019-05-12T02:39:14.646Z,0.00
2019-05-12T02:40:14.915Z,0.00
2019-05-12T02:41:11.282Z,0.00
2019-05-12T02:42:11.262Z,0.00
2019-05-12T02:43:11.268Z,4.00
2019-05-12T02:44:14.658Z,4.00
2019-05-12T02:45:15.091Z,4.00
2019-05-12T02:46:11.231Z,0.00
2019-05-12T02:47:11.213Z,4.00
2019-05-12T02:48:14.156Z,4.00
2019-05-12T02:49:11.210Z,8.00
2019-05-12T02:50:14.367Z,4.00
2019-05-12T02:51:11.167Z,8.00
2019-05-12T02:52:11.160Z,12.00
2019-05-12T02:53:14.220Z,8.00
2019-05-12T02:54:14.236Z,8.00
2019-05-12T02:55:11.124Z,12.00
2019-05-12T02:56:11.116Z,16.00
2019-05-12T02:57:14.191Z,16.00
2019-05-12T02:58:11.104Z,20.00
2019-05-12T02:59:11.105Z,20.00
2019-05-12T03:00:11.064Z,24.00
2019-05-12T03:01:11.057Z,28.00
2019-05-12T03:02:13.959Z,28.00
2019-05-12T03:03:14.406Z,36.00
2019-05-12T03:04:11.045Z,40.00
2019-05-12T03:05:14.583Z,44.00
2019-05-12T03:06:11.009Z,48.00
2019-05-12T03:07:10.998Z,56.00
2019-05-12T03:08:10.981Z,60.00
2019-05-12T03:09:10.984Z,68.00
2019-05-12T03:10:10.970Z,72.00
2019-05-12T03:11:10.950Z,80.00
2019-05-12T03:12:10.948Z,88.00
2019-05-12T03:13:10.935Z,96.00
2019-05-12T03:14:10.949Z,100.00
2019-05-12T03:15:14.849Z,108.00
2019-05-12T03:16:10.912Z,116.00
2019-05-12T03:17:10.891Z,124.00
2019-05-12T03:18:10.891Z,132.00
2019-05-12T03:19:10.882Z,140.00
2019-05-12T03:20:10.853Z,152.00
2019-05-12T03:21:10.843Z,160.00
2019-05-12T03:22:13.911Z,172.00
2019-05-12T03:23:10.824Z,184.00
2019-05-12T03:24:10.844Z,196.00
2019-05-12T03:25:20.020Z,208.00
2019-05-12T03:26:15.110Z,224.00
2019-05-12T03:27:10.790Z,236.00
2019-05-12T03:28:10.779Z,252.00
2019-05-12T03:29:10.760Z,268.00
2019-05-12T03:30:12.519Z,284.00
2019-05-12T03:31:22.019Z,304.00
2019-05-12T03:32:17.312Z,320.00
2019-05-12T03:33:18.292Z,336.00
2019-05-12T03:34:18.560Z,356.00
2019-05-12T03:35:17.045Z,376.00
2019-05-12T03:36:17.173Z,396.00
2019-05-12T03:37:17.164Z,416.00
2019-05-12T03:38:14.532Z,440.00
2019-05-12T03:39:10.657Z,464.00
2019-05-12T03:40:10.643Z,492.00
2019-05-12T03:41:10.643Z,520.00
2019-05-12T03:42:10.626Z,548.00
2019-05-12T03:43:10.621Z,580.00
2019-05-12T03:44:10.608Z,612.00
2019-05-12T03:45:10.608Z,652.00
2019-05-12T03:46:10.593Z,684.00
2019-05-12T03:47:10.568Z,720.00
2019-05-12T03:48:10.563Z,756.00
2019-05-12T03:49:10.555Z,796.00
2019-05-12T03:50:10.546Z,832.00
2019-05-12T03:51:10.541Z,872.00
2019-05-12T03:52:10.514Z,916.00
2019-05-12T03:53:11.357Z,956.00
2019-05-12T03:54:10.495Z,1004.00
2019-05-12T03:55:29.629Z,1052.00
2019-05-12T03:56:14.858Z,1104.00
2019-05-12T03:57:10.470Z,1156.00
2019-05-12T03:58:10.458Z,1212.00
2019-05-12T03:59:10.466Z,1268.00
2019-05-12T04:00:10.435Z,1336.00
2019-05-12T04:01:10.421Z,1404.00
2019-05-12T04:02:10.431Z,1476.00
2019-05-12T04:03:10.407Z,1556.00
2019-05-12T04:04:10.388Z,1636.00
2019-05-12T04:05:10.376Z,1720.00
2019-05-12T04:06:10.369Z,1808.00
2019-05-12T04:07:10.367Z,1904.00
2019-05-12T04:08:10.358Z,2000.00
2019-05-12T04:09:10.337Z,2104.00
2019-05-12T04:10:10.326Z,2212.00
2019-05-12T04:11:10.317Z,2316.00
2019-05-12T04:12:10.327Z,2424.00
2019-05-12T04:13:10.292Z,2528.00
2019-05-12T04:14:10.276Z,2636.00
2019-05-12T04:15:10.272Z,2756.00
2019-05-12T04:16:10.263Z,2876.00
2019-05-12T04:17:10.273Z,2996.00
2019-05-12T04:18:10.239Z,3116.00
2019-05-12T04:19:10.230Z,3228.00
2019-05-12T04:20:10.245Z,3316.00
2019-05-12T04:21:10.210Z,3396.00
2019-05-12T04:22:10.416Z,3468.00
2019-05-12T04:23:10.189Z,3536.00
2019-05-12T04:24:10.181Z,3600.00
2019-05-12T04:25:10.208Z,3668.00
2019-05-12T04:26:13.340Z,3728.00
2019-05-12T04:27:14.799Z,3792.00
2019-05-12T04:28:10.138Z,3856.00
2019-05-12T04:29:10.128Z,3928.00
2019-05-12T04:30:10.118Z,3988.00
2019-05-12T04:31:10.107Z,4044.00
2019-05-12T04:32:10.085Z,4096.00
2019-05-12T04:33:10.091Z,4132.00
2019-05-12T04:34:14.570Z,4172.00
2019-05-12T04:35:11.065Z,4208.00
2019-05-12T04:36:10.043Z,4252.00
2019-05-12T04:37:10.044Z,4304.00
2019-05-12T04:38:10.049Z,4364.00
2019-05-12T04:39:10.012Z,4436.00
2019-05-12T04:40:10.008Z,4512.00
2019-05-12T04:41:09.994Z,4600.00
2019-05-12T04:42:09.988Z,4684.00
2019-05-12T04:43:09.996Z,4772.00
2019-05-12T04:44:09.964Z,4876.00
2019-05-12T04:45:09.949Z,4980.00
2019-05-12T04:46:09.946Z,5104.00
2019-05-12T04:47:09.926Z,5252.00
2019-05-12T04:48:09.942Z,5388.00
2019-05-12T04:49:09.913Z,5544.00
2019-05-12T04:50:09.897Z,5708.00
2019-05-12T04:51:09.897Z,5860.00
2019-05-12T04:52:09.886Z,5972.00
2019-05-12T04:53:09.873Z,6108.00
2019-05-12T04:54:09.869Z,6224.00
2019-05-12T04:55:09.843Z,6340.00
2019-05-12T04:56:16.824Z,6444.00
2019-05-12T04:57:10.815Z,6540.00
2019-05-12T04:58:09.804Z,6600.00
2019-05-12T04:59:09.815Z,6676.00
2019-05-12T05:00:09.791Z,6756.00
2019-05-12T05:01:09.784Z,6828.00
2019-05-12T05:02:09.771Z,6896.00
2019-05-12T05:03:09.766Z,6980.00
2019-05-12T05:04:09.743Z,7132.00
2019-05-12T05:05:09.743Z,7324.00
2019-05-12T05:06:09.728Z,7420.00
2019-05-12T05:07:09.724Z,7408.00
2019-05-12T05:08:09.703Z,7332.00
2019-05-12T05:09:09.699Z,7264.00
2019-05-12T05:10:09.711Z,7200.00
2019-05-12T05:11:09.674Z,7176.00
2019-05-12T05:12:09.667Z,7192.00
2019-05-12T05:13:09.650Z,7248.00
2019-05-12T05:14:09.642Z,7324.00
2019-05-12T05:15:09.633Z,7356.00
2019-05-12T05:16:09.626Z,7408.00
2019-05-12T05:17:09.622Z,7532.00
2019-05-12T05:18:09.595Z,7668.00
2019-05-12T05:19:09.581Z,7780.00
2019-05-12T05:20:09.579Z,7872.00
2019-05-12T05:21:09.588Z,7980.00
2019-05-12T05:22:09.548Z,8088.00
2019-05-12T05:23:09.538Z,8252.00
2019-05-12T05:24:09.531Z,8408.00
2019-05-12T05:25:09.524Z,8604.00
2019-05-12T05:26:21.151Z,8880.00
2019-05-12T05:27:10.502Z,9244.00
2019-05-12T05:28:09.486Z,9712.00
2019-05-12T05:29:09.474Z,10328.00
2019-05-12T05:30:09.480Z,10764.00
2019-05-12T05:31:09.458Z,10876.00
2019-05-12T05:32:09.473Z,10692.00
2019-05-12T05:33:09.438Z,10928.00
2019-05-12T05:34:09.426Z,10812.00
2019-05-12T05:35:09.415Z,10216.00
2019-05-12T05:36:15.260Z,9856.00
2019-05-12T05:37:10.409Z,9628.00
2019-05-12T05:38:10.879Z,9776.00
2019-05-12T05:39:10.379Z,9960.00
2019-05-12T05:40:09.402Z,9884.00
2019-05-12T05:41:10.563Z,9840.00
2019-05-12T05:42:09.334Z,9608.00
2019-05-12T05:43:17.502Z,9724.00
2019-05-12T05:44:10.317Z,9532.00
2019-05-12T05:45:09.867Z,9340.00
2019-05-12T05:46:10.301Z,9024.00
2019-05-12T05:47:09.286Z,8692.00
2019-05-12T05:48:10.208Z,8540.00
2019-05-12T05:49:09.280Z,8596.00
2019-05-12T05:50:09.248Z,8916.00
2019-05-12T05:51:09.282Z,9612.00
2019-05-12T05:52:09.232Z,9916.00
2019-05-12T05:53:14.347Z,10280.00
2019-05-12T05:54:10.204Z,10480.00
2019-05-12T05:55:14.838Z,10560.00
2019-05-12T05:56:10.203Z,10784.00
2019-05-12T05:57:09.178Z,11048.00
2019-05-12T05:58:10.611Z,11352.00
2019-05-12T05:59:09.159Z,11752.00
2019-05-12T06:00:17.475Z,12188.00
2019-05-12T06:01:10.131Z,12616.00
2019-05-12T06:02:09.122Z,13084.00
2019-05-12T06:03:16.597Z,13600.00
2019-05-12T06:04:10.121Z,14140.00
2019-05-12T06:05:09.097Z,14776.00
2019-05-12T06:06:12.443Z,14936.00
2019-05-12T06:07:10.073Z,14988.00
2019-05-12T06:08:16.572Z,15044.00
2019-05-12T06:09:10.047Z,15040.00
2019-05-12T06:10:09.042Z,14896.00
2019-05-12T06:11:13.703Z,14628.00
2019-05-12T06:12:10.194Z,14600.00
2019-05-12T06:13:09.003Z,14744.00
2019-05-12T06:14:14.089Z,15020.00
2019-05-12T06:15:09.997Z,15416.00
2019-05-12T06:16:11.716Z,15936.00
2019-05-12T06:17:09.969Z,16652.00
2019-05-12T06:18:08.956Z,17216.00
2019-05-12T06:19:08.962Z,17952.00
2019-05-12T06:20:08.942Z,18784.00
2019-05-12T06:21:08.922Z,20000.00
2019-05-12T06:22:13.831Z,21024.00
2019-05-12T06:23:09.896Z,21920.00
2019-05-12T06:24:13.839Z,23008.00
2019-05-12T06:25:09.881Z,24192.00
2019-05-12T06:26:08.863Z,27712.00
2019-05-12T06:27:19.160Z,25536.00
2019-05-12T06:28:09.846Z,25568.00
2019-05-12T06:29:11.467Z,27072.00
2019-05-12T06:30:09.831Z,26208.00
2019-05-12T06:31:08.815Z,27456.00
2019-05-12T06:32:10.805Z,33472.00
2019-05-12T06:33:08.795Z,36992.00
2019-05-12T06:34:15.529Z,30816.00
2019-05-12T06:35:09.763Z,31744.00
2019-05-12T06:36:14.033Z,39456.00
2019-05-12T06:37:16.202Z,38560.00
2019-05-12T06:38:09.754Z,39456.00
2019-05-12T06:39:10.345Z,44768.00
2019-05-12T06:40:09.711Z,47840.00
2019-05-12T06:41:12.737Z,45152.00
2019-05-12T06:42:14.076Z,43328.00
2019-05-12T06:43:09.685Z,46688.00
2019-05-12T06:44:13.727Z,40384.00
2019-05-12T06:45:09.661Z,48416.00
2019-05-12T06:46:11.784Z,44640.00
2019-05-12T06:47:09.651Z,44448.00
2019-05-12T06:48:08.633Z,52736.00
2019-05-12T06:49:12.756Z,41888.00
2019-05-12T06:50:09.610Z,44192.00
2019-05-12T06:51:09.126Z,41696.00
2019-05-12T06:52:09.585Z,42112.00
2019-05-12T06:53:08.572Z,54208.00
2019-05-12T06:54:12.066Z,52416.00
2019-05-12T06:55:09.566Z,52064.00
2019-05-12T06:56:09.504Z,52256.00
2019-05-12T06:57:21.414Z,40768.00
2019-05-12T06:58:09.518Z,53152.00
2019-05-12T06:59:11.579Z,47040.00
2019-05-12T07:00:08.525Z,39584.00
2019-05-12T07:01:10.440Z,38848.00
2019-05-12T07:02:09.483Z,37760.00
2019-05-12T07:03:08.474Z,40064.00
2019-05-12T07:04:10.218Z,41888.00
2019-05-12T07:05:08.455Z,41568.00
2019-05-12T07:06:09.283Z,44960.00
2019-05-12T07:07:09.420Z,46560.00
2019-05-12T07:08:08.419Z,48704.00
2019-05-12T07:09:09.746Z,53376.00
2019-05-12T07:10:13.054Z,53792.00
2019-05-12T07:11:09.384Z,61216.00
2019-05-12T07:12:08.367Z,68032.00
2019-05-12T07:13:08.359Z,68512.00
2019-05-12T07:14:18.818Z,74784.00
2019-05-12T07:15:09.400Z,73440.00
2019-05-12T07:16:10.114Z,74944.00
2019-05-12T07:17:09.317Z,74016.00
2019-05-12T07:18:10.106Z,75168.00
2019-05-12T07:19:17.447Z,73952.00
2019-05-12T07:20:09.314Z,72288.00
2019-05-12T07:21:09.354Z,68224.00
2019-05-12T07:22:21.647Z,77056.00
2019-05-12T07:23:09.258Z,74144.00
2019-05-12T07:24:11.061Z,73440.00
2019-05-12T07:25:08.529Z,58592.00
2019-05-12T07:26:14.189Z,65984.00
2019-05-12T07:27:09.485Z,53536.00
2019-05-12T07:28:08.381Z,71232.00
2019-05-12T07:29:08.190Z,65824.00
2019-05-12T07:30:08.196Z,68960.00
2019-05-12T07:31:08.172Z,71232.00
2019-05-12T07:32:16.460Z,65152.00
2019-05-12T07:33:09.150Z,60672.00
2019-05-12T07:34:08.139Z,62752.00
2019-05-12T07:35:08.130Z,69344.00
2019-05-12T07:36:08.124Z,81760.00
2019-05-12T07:37:08.098Z,83360.00
2019-05-12T07:38:12.093Z,81280.00
2019-05-12T07:39:09.081Z,77312.00
2019-05-12T07:40:08.075Z,79584.00
2019-05-12T07:41:10.689Z,79968.00
2019-05-12T07:42:08.054Z,80928.00
2019-05-12T07:43:09.757Z,81248.00
2019-05-12T07:44:09.032Z,83104.00
2019-05-12T07:45:11.576Z,82816.00
2019-05-12T07:46:09.028Z,78720.00
2019-05-12T07:47:08.001Z,85472.00
2019-05-12T07:48:10.138Z,84096.00
2019-05-12T07:49:07.973Z,82560.00
2019-05-12T07:50:09.954Z,86464.00
2019-05-12T07:51:08.963Z,80992.00
2019-05-12T07:52:07.948Z,84000.00
2019-05-12T07:53:07.941Z,85760.00
2019-05-12T07:54:07.926Z,85344.00
2019-05-12T07:55:07.916Z,85888.00
2019-05-12T07:56:07.917Z,87136.00
2019-05-12T07:57:11.839Z,88672.00
2019-05-12T07:58:14.067Z,89280.00
2019-05-12T07:59:08.865Z,90720.00
2019-05-12T08:00:11.382Z,91008.00
2019-05-12T08:01:08.876Z,90720.00
2019-05-12T08:02:07.849Z,91008.00
2019-05-12T08:03:16.143Z,91744.00
2019-05-12T08:04:08.832Z,93312.00
2019-05-12T08:05:10.935Z,93952.00
2019-05-12T08:06:08.845Z,93248.00
2019-05-12T08:07:07.796Z,95136.00
2019-05-12T08:08:10.845Z,95520.00
2019-05-12T08:09:07.774Z,95776.00
2019-05-12T08:10:17.739Z,96096.00
2019-05-12T08:11:08.757Z,98112.00
2019-05-12T08:12:09.706Z,99840.00
2019-05-12T08:13:08.730Z,91584.00
2019-05-12T08:14:13.678Z,98464.00
2019-05-12T08:15:09.747Z,97440.00
2019-05-12T08:16:07.717Z,90912.00
2019-05-12T08:17:11.945Z,100256.00
2019-05-12T08:18:08.680Z,98432.00
2019-05-12T08:19:08.538Z,78688.00
2019-05-12T08:20:07.656Z,97248.00
2019-05-12T08:21:07.662Z,79424.00
2019-05-12T08:22:07.641Z,108064.00
2019-05-12T08:23:10.430Z,107712.00
2019-05-12T08:24:07.621Z,105664.00
2019-05-12T08:25:07.614Z,104416.00
2019-05-12T08:26:12.058Z,104096.00
2019-05-12T08:27:08.609Z,99072.00
2019-05-12T08:28:15.421Z,84288.00
2019-05-12T08:29:10.381Z,104096.00
2019-05-12T08:30:08.554Z,103392.00
2019-05-12T08:31:07.562Z,101152.00
2019-05-12T08:32:09.927Z,103328.00
2019-05-12T08:33:09.966Z,104928.00
2019-05-12T08:34:07.525Z,102528.00
2019-05-12T08:35:07.505Z,104864.00
2019-05-12T08:36:11.227Z,98048.00
2019-05-12T08:37:08.493Z,94240.00
2019-05-12T08:38:07.483Z,96160.00
2019-05-12T08:39:11.763Z,90976.00
2019-05-12T08:40:08.459Z,86912.00
2019-05-12T08:41:07.481Z,85088.00
2019-05-12T08:42:07.439Z,84768.00
2019-05-12T08:43:10.177Z,85216.00
2019-05-12T08:44:07.428Z,93376.00
2019-05-12T08:45:08.303Z,86528.00
2019-05-12T08:46:12.240Z,86912.00
2019-05-12T08:47:11.688Z,82560.00
2019-05-12T08:48:10.410Z,86400.00
2019-05-12T08:49:08.373Z,83424.00
2019-05-12T08:50:07.363Z,76160.00
2019-05-12T08:51:14.348Z,75392.00
2019-05-12T08:52:08.362Z,80544.00
2019-05-12T08:53:14.021Z,84320.00
2019-05-12T08:54:08.482Z,89984.00
2019-05-12T08:55:07.311Z,91840.00
2019-05-12T08:56:12.856Z,89760.00
2019-05-12T08:57:08.294Z,93088.00
2019-05-12T08:58:07.295Z,95840.00
2019-05-12T08:59:09.677Z,93408.00
2019-05-12T09:00:08.771Z,86208.00
2019-05-12T09:01:07.250Z,91136.00
2019-05-12T09:02:10.478Z,87104.00
2019-05-12T09:03:07.246Z,88064.00
2019-05-12T09:04:12.096Z,96096.00
2019-05-12T09:05:08.215Z,99136.00
2019-05-12T09:06:09.312Z,102080.00
2019-05-12T09:07:08.183Z,105632.00
2019-05-12T09:08:07.184Z,104224.00
2019-05-12T09:09:07.191Z,108544.00
2019-05-12T09:10:07.160Z,110528.00
2019-05-12T09:11:07.151Z,105792.00
2019-05-12T09:12:07.133Z,94784.00
2019-05-12T09:13:07.129Z,82400.00
2019-05-12T09:14:07.129Z,76896.00
2019-05-12T09:15:08.400Z,79840.00
2019-05-12T09:16:09.636Z,79936.00
2019-05-12T09:17:07.495Z,83456.00
2019-05-12T09:18:07.086Z,88704.00
2019-05-12T09:19:10.251Z,101632.00
2019-05-12T09:20:08.987Z,109568.00
2019-05-12T09:21:07.060Z,115040.00
2019-05-12T09:22:16.116Z,115392.00
2019-05-12T09:23:08.033Z,108160.00
2019-05-12T09:24:07.033Z,94368.00
2019-05-12T09:25:08.574Z,93056.00
2019-05-12T09:26:06.997Z,100000.00
2019-05-12T09:27:08.798Z,112032.00
2019-05-12T09:28:06.987Z,109536.00
2019-05-12T09:29:07.520Z,104768.00
2019-05-12T09:30:09.728Z,112672.00
2019-05-12T09:31:06.961Z,113984.00
2019-05-12T09:32:09.526Z,111808.00
2019-05-12T09:33:06.930Z,119392.00
2019-05-12T09:34:11.605Z,117952.00
2019-05-12T09:35:07.912Z,116096.00
2019-05-12T09:36:11.429Z,116608.00
2019-05-12T09:37:07.896Z,119648.00
2019-05-12T09:38:11.474Z,115936.00
2019-05-12T09:39:07.889Z,122016.00
2019-05-12T09:40:06.865Z,120576.00
2019-05-12T09:41:06.860Z,117280.00
2019-05-12T09:42:06.849Z,120416.00
2019-05-12T09:43:10.703Z,117760.00
2019-05-12T09:44:06.833Z,118432.00
2019-05-12T09:45:10.328Z,114688.00
2019-05-12T09:46:06.804Z,115488.00
2019-05-12T09:47:12.905Z,118272.00
2019-05-12T09:48:09.385Z,122048.00
2019-05-12T09:49:06.806Z,124512.00
2019-05-12T09:50:09.735Z,128960.00
2019-05-12T09:51:07.990Z,130528.00
2019-05-12T09:52:06.754Z,131296.00
2019-05-12T09:53:11.320Z,130816.00
2019-05-12T09:54:06.739Z,131744.00
2019-05-12T09:55:06.744Z,133664.00
2019-05-12T09:56:06.711Z,134784.00
2019-05-12T09:57:06.728Z,126688.00
2019-05-12T09:58:06.704Z,126752.00
2019-05-12T09:59:17.109Z,121632.00
2019-05-12T10:00:07.710Z,126560.00
2019-05-12T10:01:06.669Z,124768.00
2019-05-12T10:02:10.473Z,127264.00
2019-05-12T10:03:08.705Z,127872.00
2019-05-12T10:04:10.272Z,131936.00
2019-05-12T10:05:07.628Z,134368.00
2019-05-12T10:06:11.319Z,130688.00
2019-05-12T10:07:07.608Z,132256.00
2019-05-12T10:08:06.610Z,133856.00
2019-05-12T10:09:08.916Z,136032.00
2019-05-12T10:10:07.580Z,133440.00
2019-05-12T10:11:10.439Z,132192.00
2019-05-12T10:12:07.569Z,132576.00
2019-05-12T10:13:06.576Z,127136.00
2019-05-12T10:14:10.797Z,121824.00
2019-05-12T10:15:06.540Z,126720.00
2019-05-12T10:16:08.781Z,129600.00
2019-05-12T10:17:06.529Z,130784.00
2019-05-12T10:18:11.033Z,140960.00
2019-05-12T10:19:06.500Z,140224.00
2019-05-12T10:20:06.496Z,140192.00
2019-05-12T10:21:10.172Z,138464.00
2019-05-12T10:22:07.520Z,138528.00
2019-05-12T10:23:10.325Z,138784.00
2019-05-12T10:24:07.453Z,103104.00
2019-05-12T10:25:06.449Z,116896.00
2019-05-12T10:26:10.120Z,134784.00
2019-05-12T10:27:06.457Z,133984.00
2019-05-12T10:28:11.533Z,138784.00
2019-05-12T10:29:17.469Z,136000.00
2019-05-12T10:30:12.348Z,134464.00
2019-05-12T10:31:07.395Z,134336.00
2019-05-12T10:32:06.416Z,132960.00
2019-05-12T10:33:06.386Z,131552.00
2019-05-12T10:34:06.372Z,130592.00
2019-05-12T10:35:06.364Z,132288.00
2019-05-12T10:36:08.485Z,132640.00
2019-05-12T10:37:06.337Z,133920.00
2019-05-12T10:38:10.700Z,137216.00
2019-05-12T10:39:06.323Z,138336.00
2019-05-12T10:40:06.319Z,135424.00
2019-05-12T10:41:06.308Z,134944.00
2019-05-12T10:42:06.293Z,134272.00
2019-05-12T10:43:06.309Z,135264.00
2019-05-12T10:44:06.283Z,135232.00
2019-05-12T10:45:10.841Z,138464.00
2019-05-12T10:46:07.269Z,136000.00
2019-05-12T10:47:06.259Z,140416.00
2019-05-12T10:48:06.251Z,141440.00
2019-05-12T10:49:06.242Z,134976.00
2019-05-12T10:50:06.222Z,133952.00
2019-05-12T10:51:06.217Z,136192.00
2019-05-12T10:52:06.223Z,131872.00
2019-05-12T10:53:09.908Z,135520.00
2019-05-12T10:54:12.596Z,81984.00
2019-05-12T10:55:07.199Z,134592.00
2019-05-12T10:56:06.171Z,131104.00
2019-05-12T10:57:06.163Z,131008.00
2019-05-12T10:58:07.279Z,128160.00
2019-05-12T10:59:06.154Z,123552.00
2019-05-12T11:00:06.142Z,120704.00
2019-05-12T11:01:08.541Z,127776.00
2019-05-12T11:02:06.122Z,126272.00
2019-05-12T11:03:11.040Z,133984.00
2019-05-12T11:04:07.125Z,116832.00
2019-05-12T11:05:06.110Z,134752.00
2019-05-12T11:06:07.698Z,130176.00
2019-05-12T11:07:06.091Z,133600.00
2019-05-12T11:08:10.786Z,128608.00
2019-05-12T11:09:07.086Z,130688.00
2019-05-12T11:10:15.446Z,133536.00
2019-05-12T11:11:07.072Z,126784.00
2019-05-12T11:12:06.093Z,122944.00
2019-05-12T11:13:08.386Z,115488.00
2019-05-12T11:14:06.036Z,125280.00
2019-05-12T11:15:06.599Z,125952.00
2019-05-12T11:16:06.006Z,115744.00
2019-05-12T11:17:07.679Z,104288.00
2019-05-12T11:18:05.988Z,103872.00
2019-05-12T11:19:10.387Z,110560.00
2019-05-12T11:20:05.979Z,115264.00
2019-05-12T11:21:05.967Z,123040.00
2019-05-12T11:22:05.951Z,125728.00
2019-05-12T11:23:05.947Z,133504.00
2019-05-12T11:24:06.987Z,134656.00
2019-05-12T11:25:05.991Z,125632.00
2019-05-12T11:26:05.901Z,129408.00
2019-05-12T11:27:05.893Z,122400.00
2019-05-12T11:28:05.888Z,128640.00
2019-05-12T11:29:05.882Z,131616.00
2019-05-12T11:30:05.888Z,131264.00
2019-05-12T11:31:05.860Z,138848.00
2019-05-12T11:32:05.855Z,138816.00
2019-05-12T11:33:05.843Z,137984.00
2019-05-12T11:34:06.032Z,141792.00
2019-05-12T11:35:05.846Z,138944.00
2019-05-12T11:36:05.818Z,136992.00
2019-05-12T11:37:06.561Z,133312.00
2019-05-12T11:38:05.804Z,135040.00
2019-05-12T11:39:05.810Z,132832.00
2019-05-12T11:40:05.797Z,137568.00
2019-05-12T11:41:10.067Z,140000.00
2019-05-12T11:42:06.841Z,145696.00
2019-05-12T11:43:05.762Z,144256.00
2019-05-12T11:44:05.749Z,143296.00
2019-05-12T11:45:05.757Z,145376.00
2019-05-12T11:46:05.740Z,145632.00
2019-05-12T11:47:05.737Z,144736.00
2019-05-12T11:48:09.965Z,144608.00
2019-05-12T11:49:05.707Z,146144.00
2019-05-12T11:50:09.770Z,146848.00
2019-05-12T11:51:05.694Z,146048.00
2019-05-12T11:52:13.289Z,145472.00
2019-05-12T11:53:06.674Z,147328.00
2019-05-12T11:54:08.977Z,143744.00
2019-05-12T11:55:06.676Z,145120.00
2019-05-12T11:56:07.652Z,146976.00
2019-05-12T11:57:05.635Z,142208.00
2019-05-12T11:58:09.820Z,143072.00
2019-05-12T11:59:06.613Z,141728.00
2019-05-12T12:00:05.627Z,145056.00
2019-05-12T12:01:08.304Z,139584.00
2019-05-12T12:02:05.590Z,139200.00
2019-05-12T12:03:12.743Z,138624.00
2019-05-12T12:04:06.576Z,138816.00
2019-05-12T12:05:05.607Z,136736.00
2019-05-12T12:06:05.581Z,137024.00